createdAt,value
2023-08-31T00:00:15.121Z,17.51
2023-08-31T00:02:44.654Z,17.43
2023-08-31T00:05:16.931Z,17.38
2023-08-31T00:07:47.616Z,17.33
2023-08-31T00:10:18.415Z,17.29
2023-08-31T00:12:47.990Z,17.24
2023-08-31T00:15:17.583Z,17.19
2023-08-31T00:17:47.173Z,17.17
2023-08-31T00:20:20.104Z,17.23
2023-08-31T00:22:49.693Z,17.19
2023-08-31T00:25:19.429Z,17.18
2023-08-31T00:27:49.743Z,17.21
2023-08-31T00:30:19.304Z,17.25
2023-08-31T00:32:49.005Z,17.23
2023-08-31T00:35:21.248Z,17.32
2023-08-31T00:37:52.389Z,17.32
2023-08-31T00:40:22.119Z,17.02
2023-08-31T00:42:52.941Z,17.08
2023-08-31T00:45:23.424Z,16.85
2023-08-31T00:47:53.358Z,16.67
2023-08-31T00:50:26.026Z,16.79
2023-08-31T00:52:55.599Z,16.94
2023-08-31T00:55:25.523Z,17.04
2023-08-31T00:57:56.720Z,17.13
2023-08-31T01:00:27.546Z,17.20
2023-08-31T01:03:02.395Z,17.18
2023-08-31T01:05:39.160Z,17.12
2023-08-31T01:08:15.388Z,17.05
2023-08-31T01:10:47.945Z,17.05
2023-08-31T01:13:18.681Z,17.13
2023-08-31T01:15:49.816Z,17.14
2023-08-31T01:18:20.189Z,17.12
2023-08-31T01:20:56.844Z,17.10
2023-08-31T01:23:26.512Z,17.08
2023-08-31T01:25:58.636Z,17.14
2023-08-31T01:28:28.513Z,17.06
2023-08-31T01:30:58.540Z,17.02
2023-08-31T01:33:28.121Z,16.98
2023-08-31T01:35:57.666Z,16.91
2023-08-31T01:38:31.361Z,16.91
2023-08-31T01:41:04.695Z,16.86
2023-08-31T01:43:34.797Z,16.78
2023-08-31T01:46:05.225Z,16.84
2023-08-31T01:48:34.917Z,16.80
2023-08-31T01:51:05.016Z,16.64
2023-08-31T01:53:34.604Z,16.53
2023-08-31T01:56:07.404Z,16.49
2023-08-31T01:58:37.033Z,16.44
2023-08-31T02:01:06.613Z,16.44
2023-08-31T02:03:36.429Z,16.39
2023-08-31T02:06:06.209Z,16.36
2023-08-31T02:08:36.165Z,16.42
2023-08-31T02:11:08.310Z,16.37
2023-08-31T02:13:38.196Z,16.35
2023-08-31T02:16:08.152Z,16.31
2023-08-31T02:18:37.751Z,16.27
2023-08-31T02:21:08.752Z,16.25
2023-08-31T02:23:38.091Z,16.25
2023-08-31T02:26:10.233Z,16.30
2023-08-31T02:28:39.761Z,16.32
2023-08-31T02:31:09.383Z,16.33
2023-08-31T02:33:38.985Z,16.31
2023-08-31T02:36:08.842Z,16.26
2023-08-31T02:38:38.557Z,16.25
2023-08-31T02:41:10.708Z,16.22
2023-08-31T02:43:40.452Z,16.17
2023-08-31T02:46:10.112Z,16.16
2023-08-31T02:48:40.280Z,16.22
2023-08-31T02:51:10.174Z,15.88
2023-08-31T02:53:39.814Z,15.49
2023-08-31T02:56:11.943Z,15.36
2023-08-31T02:58:41.777Z,15.51
2023-08-31T03:01:12.892Z,15.62
2023-08-31T03:03:42.614Z,15.65
2023-08-31T03:06:12.574Z,15.68
2023-08-31T03:08:42.250Z,15.70
2023-08-31T03:11:15.568Z,15.65
2023-08-31T03:13:45.201Z,15.62
2023-08-31T03:16:14.748Z,15.66
2023-08-31T03:18:44.356Z,15.66
2023-08-31T03:21:13.886Z,15.67
2023-08-31T03:23:43.456Z,15.65
2023-08-31T03:26:15.721Z,15.62
2023-08-31T03:28:45.313Z,15.64
2023-08-31T03:31:14.960Z,15.65
2023-08-31T03:33:44.692Z,15.72
2023-08-31T03:36:14.393Z,15.70
2023-08-31T03:38:43.956Z,15.69
2023-08-31T03:41:16.288Z,15.61
2023-08-31T03:43:45.852Z,15.69
2023-08-31T03:46:15.411Z,15.73
2023-08-31T03:48:45.020Z,15.74
2023-08-31T03:51:14.684Z,15.60
2023-08-31T03:53:45.340Z,15.62
2023-08-31T03:56:17.517Z,15.58
2023-08-31T03:58:47.109Z,15.33
2023-08-31T04:01:16.722Z,15.13
2023-08-31T04:03:46.444Z,15.18
2023-08-31T04:06:16.006Z,15.26
2023-08-31T04:08:45.591Z,15.32
2023-08-31T04:11:17.718Z,15.35
2023-08-31T04:13:47.294Z,15.36
2023-08-31T04:16:16.883Z,15.28
2023-08-31T04:18:48.890Z,15.34
2023-08-31T04:21:18.445Z,15.37
2023-08-31T04:23:48.118Z,15.37
2023-08-31T04:26:21.637Z,15.40
2023-08-31T04:28:51.214Z,15.44
2023-08-31T04:31:20.799Z,15.41
2023-08-31T04:33:54.795Z,15.37
2023-08-31T04:36:24.478Z,15.38
2023-08-31T04:38:54.249Z,15.32
2023-08-31T04:41:26.446Z,15.31
2023-08-31T04:43:55.987Z,15.32
2023-08-31T04:46:25.568Z,15.33
2023-08-31T04:48:55.162Z,15.37
2023-08-31T04:51:34.272Z,15.41
2023-08-31T04:54:04.138Z,15.50
2023-08-31T04:56:36.831Z,15.49
2023-08-31T04:59:06.738Z,15.51
2023-08-31T05:01:36.288Z,15.60
2023-08-31T05:04:06.616Z,15.66
2023-08-31T05:06:36.234Z,15.69
2023-08-31T05:09:07.289Z,15.86
2023-08-31T05:11:39.254Z,16.04
2023-08-31T05:14:09.039Z,16.14
2023-08-31T05:16:38.693Z,16.16
2023-08-31T05:19:08.856Z,16.15
2023-08-31T05:21:38.431Z,16.18
2023-08-31T05:24:08.945Z,16.27
2023-08-31T05:26:41.113Z,16.27
2023-08-31T05:29:10.800Z,15.77
2023-08-31T05:31:40.502Z,16.12
2023-08-31T05:34:10.169Z,16.33
2023-08-31T05:36:39.787Z,16.32
2023-08-31T05:39:10.156Z,16.33
2023-08-31T05:41:44.212Z,16.33
2023-08-31T05:44:13.958Z,16.48
2023-08-31T05:46:46.297Z,16.54
2023-08-31T05:49:15.930Z,16.58
2023-08-31T05:51:45.522Z,16.60
2023-08-31T05:54:15.638Z,16.53
2023-08-31T05:56:49.197Z,16.48
2023-08-31T05:59:18.817Z,16.44
2023-08-31T06:01:48.415Z,16.46
2023-08-31T06:04:18.076Z,16.51
2023-08-31T06:06:48.974Z,16.59
2023-08-31T06:09:18.788Z,16.65
2023-08-31T06:11:50.988Z,16.79
2023-08-31T06:14:20.776Z,16.81
2023-08-31T06:16:50.962Z,16.89
2023-08-31T06:19:20.575Z,17.08
2023-08-31T06:21:50.167Z,17.09
2023-08-31T06:24:19.773Z,17.13
2023-08-31T06:26:53.220Z,16.72
2023-08-31T06:29:22.847Z,16.75
2023-08-31T06:31:52.469Z,16.83
2023-08-31T06:34:22.192Z,16.86
2023-08-31T06:36:51.762Z,17.17
2023-08-31T06:39:21.525Z,17.35
2023-08-31T06:41:53.802Z,17.73
2023-08-31T06:44:23.418Z,17.98
2023-08-31T06:46:53.065Z,18.01
2023-08-31T06:49:23.354Z,17.95
2023-08-31T06:51:55.247Z,17.98
2023-08-31T06:54:24.872Z,18.09
2023-08-31T06:56:57.074Z,18.09
2023-08-31T06:59:26.737Z,18.02
2023-08-31T07:01:56.422Z,18.01
2023-08-31T07:04:26.033Z,17.98
2023-08-31T07:06:55.655Z,17.82
2023-08-31T07:09:25.340Z,17.90
2023-08-31T07:11:57.560Z,17.98
2023-08-31T07:14:27.395Z,18.08
2023-08-31T07:16:57.126Z,18.12
2023-08-31T07:19:26.843Z,18.25
2023-08-31T07:21:56.476Z,18.35
2023-08-31T07:24:26.599Z,18.56
2023-08-31T07:26:58.788Z,18.69
2023-08-31T07:29:29.435Z,18.89
2023-08-31T07:31:59.017Z,19.21
2023-08-31T07:34:29.002Z,19.48
2023-08-31T07:36:58.666Z,19.79
2023-08-31T07:39:28.771Z,20.40
2023-08-31T07:42:01.176Z,20.51
2023-08-31T07:44:30.790Z,20.20
2023-08-31T07:47:00.618Z,20.47
2023-08-31T07:49:30.424Z,21.07
2023-08-31T07:52:00.037Z,21.41
2023-08-31T07:54:29.850Z,21.51
2023-08-31T07:57:02.036Z,21.35
2023-08-31T07:59:31.686Z,21.55
2023-08-31T08:02:01.521Z,21.77
2023-08-31T08:04:31.188Z,21.94
2023-08-31T08:07:00.807Z,22.06
2023-08-31T08:09:31.059Z,22.24
2023-08-31T08:12:03.601Z,22.25
2023-08-31T08:14:33.614Z,22.13
2023-08-31T08:17:03.233Z,22.11
2023-08-31T08:19:32.823Z,22.34
2023-08-31T08:22:02.482Z,22.49
2023-08-31T08:24:32.115Z,22.47
2023-08-31T08:27:04.305Z,22.36
2023-08-31T08:29:33.953Z,22.94
2023-08-31T08:32:05.177Z,23.93
2023-08-31T08:34:35.052Z,23.62
2023-08-31T08:37:04.952Z,22.54
2023-08-31T08:39:34.556Z,21.78
2023-08-31T08:42:08.495Z,21.52
2023-08-31T08:44:38.066Z,21.42
2023-08-31T08:47:07.713Z,21.20
2023-08-31T08:49:37.650Z,20.89
2023-08-31T08:52:10.198Z,20.66
2023-08-31T08:54:40.688Z,20.45
2023-08-31T08:57:12.976Z,20.77
2023-08-31T08:59:42.584Z,20.65
2023-08-31T09:02:12.451Z,20.80
2023-08-31T09:04:42.071Z,20.79
2023-08-31T09:07:11.688Z,20.99
2023-08-31T09:09:52.982Z,20.71
2023-08-31T09:12:26.293Z,21.26
2023-08-31T09:15:02.634Z,21.05
2023-08-31T09:17:41.601Z,21.51
2023-08-31T09:20:13.212Z,21.78
2023-08-31T09:22:46.061Z,21.83
2023-08-31T09:25:15.832Z,21.84
2023-08-31T09:27:48.708Z,21.56
2023-08-31T09:30:18.533Z,21.31
2023-08-31T09:32:48.148Z,20.81
2023-08-31T09:35:21.974Z,20.81
2023-08-31T09:37:59.873Z,21.40
2023-08-31T09:40:29.760Z,21.47
2023-08-31T09:43:01.956Z,21.41
2023-08-31T09:48:07.536Z,21.48
2023-08-31T09:50:37.762Z,21.51
2023-08-31T09:53:08.168Z,21.76
2023-08-31T09:55:37.876Z,22.07
2023-08-31T09:58:16.079Z,22.24
2023-08-31T10:00:46.579Z,22.53
2023-08-31T10:03:19.227Z,22.68
2023-08-31T10:05:50.735Z,22.60
2023-08-31T10:08:20.681Z,22.55
2023-08-31T10:10:50.348Z,22.71
2023-08-31T10:13:22.531Z,23.35
2023-08-31T10:15:52.270Z,23.43
2023-08-31T10:18:21.834Z,22.97
2023-08-31T10:20:51.451Z,22.73
2023-08-31T10:23:21.037Z,22.69
2023-08-31T10:26:06.203Z,22.28
2023-08-31T10:28:43.564Z,22.49
2023-08-31T10:31:11.286Z,22.87
2023-08-31T10:33:44.490Z,23.32
2023-08-31T10:36:15.598Z,23.21
2023-08-31T10:38:45.791Z,23.36
2023-08-31T10:41:26.014Z,23.31
2023-08-31T10:43:59.308Z,23.19
2023-08-31T10:46:32.829Z,23.05
2023-08-31T10:49:04.281Z,23.11
2023-08-31T10:51:34.516Z,23.24
2023-08-31T10:54:11.656Z,23.42
2023-08-31T10:56:57.737Z,23.62
2023-08-31T10:59:31.288Z,24.10
2023-08-31T11:02:02.176Z,23.43
2023-08-31T11:04:32.075Z,23.64
2023-08-31T11:07:17.406Z,24.14
2023-08-31T11:09:47.386Z,24.78
2023-08-31T11:12:17.198Z,24.14
2023-08-31T11:14:49.393Z,23.34
2023-08-31T11:17:18.960Z,23.38
2023-08-31T11:19:48.573Z,23.83
2023-08-31T11:22:18.228Z,23.89
2023-08-31T11:24:47.894Z,24.12
2023-08-31T11:27:17.515Z,24.48
2023-08-31T11:29:49.766Z,25.02
2023-08-31T11:32:19.354Z,25.31
2023-08-31T11:34:49.002Z,24.97
2023-08-31T11:37:21.237Z,24.88
2023-08-31T11:39:54.762Z,24.96
2023-08-31T11:42:25.120Z,24.62
2023-08-31T11:44:57.404Z,24.57
2023-08-31T11:47:26.989Z,24.80
2023-08-31T11:49:56.596Z,24.90
2023-08-31T11:52:26.171Z,24.81
2023-08-31T11:54:56.223Z,24.95
2023-08-31T11:57:29.752Z,24.89
2023-08-31T12:00:02.390Z,24.90
2023-08-31T12:02:31.972Z,25.00
2023-08-31T12:05:01.606Z,25.30
2023-08-31T12:07:31.210Z,25.26
2023-08-31T12:10:06.529Z,25.28
2023-08-31T12:12:37.829Z,25.80
2023-08-31T12:15:10.665Z,25.88
2023-08-31T12:17:44.740Z,25.79
2023-08-31T12:20:15.458Z,24.89
2023-08-31T12:22:45.056Z,24.61
2023-08-31T12:25:14.672Z,24.97
2023-08-31T12:27:44.450Z,25.37
2023-08-31T12:30:17.357Z,25.74
2023-08-31T12:32:46.985Z,25.86
2023-08-31T12:35:16.868Z,26.07
2023-08-31T12:37:46.596Z,26.27
2023-08-31T12:40:16.447Z,25.59
2023-08-31T12:42:46.874Z,25.39
2023-08-31T12:45:20.447Z,25.36
2023-08-31T12:47:50.813Z,25.00
2023-08-31T12:50:21.067Z,25.34
2023-08-31T12:52:50.735Z,25.38
2023-08-31T12:55:21.010Z,25.61
2023-08-31T12:57:50.652Z,25.16
2023-08-31T13:00:23.562Z,25.02
2023-08-31T13:02:54.193Z,24.79
2023-08-31T13:05:23.960Z,24.89
2023-08-31T13:07:53.556Z,24.65
2023-08-31T13:10:23.339Z,24.46
2023-08-31T13:12:52.933Z,24.35
2023-08-31T13:15:25.174Z,24.66
2023-08-31T13:17:54.808Z,24.80
2023-08-31T13:20:24.450Z,25.06
2023-08-31T13:22:54.056Z,25.46
2023-08-31T13:25:25.241Z,25.66
2023-08-31T13:27:56.184Z,26.05
2023-08-31T13:30:28.807Z,25.78
2023-08-31T13:32:59.504Z,25.47
2023-08-31T13:35:29.249Z,25.13
2023-08-31T13:37:58.879Z,24.49
2023-08-31T13:40:28.733Z,24.80
2023-08-31T13:43:02.337Z,24.68
2023-08-31T13:45:34.805Z,24.75
2023-08-31T13:48:05.591Z,24.87
2023-08-31T13:50:34.974Z,24.94
2023-08-31T13:53:04.720Z,25.02
2023-08-31T13:55:35.987Z,24.73
2023-08-31T13:58:08.027Z,25.19
2023-08-31T14:00:40.214Z,25.39
2023-08-31T14:03:10.067Z,25.45
2023-08-31T14:05:39.749Z,25.20
2023-08-31T14:08:09.837Z,25.52
2023-08-31T14:10:43.485Z,25.27
2023-08-31T14:13:13.044Z,24.51
2023-08-31T14:15:48.290Z,24.04
2023-08-31T14:18:18.159Z,24.28
2023-08-31T14:20:48.006Z,24.26
2023-08-31T14:23:17.644Z,23.94
2023-08-31T14:25:47.232Z,24.02
2023-08-31T14:28:16.843Z,23.95
2023-08-31T14:30:49.002Z,23.74
2023-08-31T14:33:20.281Z,23.83
2023-08-31T14:35:49.828Z,23.81
2023-08-31T14:38:23.795Z,23.95
2023-08-31T14:40:53.375Z,23.72
2023-08-31T14:43:23.033Z,23.71
2023-08-31T14:45:55.210Z,23.64
2023-08-31T14:48:24.819Z,23.67
2023-08-31T14:50:54.361Z,23.56
2023-08-31T14:53:24.335Z,23.39
2023-08-31T14:55:53.936Z,23.28
2023-08-31T14:58:23.539Z,23.23
2023-08-31T15:00:58.805Z,23.41
2023-08-31T15:03:28.591Z,23.35
2023-08-31T15:05:58.265Z,23.19
2023-08-31T15:08:40.002Z,23.14
2023-08-31T15:11:09.661Z,22.99
2023-08-31T15:13:39.194Z,23.00
2023-08-31T15:16:11.392Z,23.00
2023-08-31T15:18:40.953Z,22.99
2023-08-31T15:21:10.578Z,22.96
2023-08-31T15:23:40.340Z,23.03
2023-08-31T15:26:09.905Z,23.21
2023-08-31T15:28:39.477Z,23.23
2023-08-31T15:31:11.670Z,23.16
2023-08-31T15:33:41.284Z,23.09
2023-08-31T15:36:11.456Z,23.18
2023-08-31T15:38:41.268Z,23.24
2023-08-31T15:41:11.034Z,23.38
2023-08-31T15:43:41.083Z,23.35
2023-08-31T15:46:13.465Z,23.17
2023-08-31T15:48:43.066Z,23.08
2023-08-31T15:51:13.013Z,23.07
2023-08-31T15:53:42.743Z,23.04
2023-08-31T15:56:12.313Z,22.97
2023-08-31T15:58:42.319Z,22.98
2023-08-31T16:01:15.548Z,22.95
2023-08-31T16:03:45.140Z,22.95
2023-08-31T16:06:15.452Z,22.97
2023-08-31T16:08:45.135Z,22.81
2023-08-31T16:11:14.846Z,22.72
2023-08-31T16:13:44.413Z,22.69
2023-08-31T16:16:16.637Z,22.77
2023-08-31T16:18:46.543Z,22.70
2023-08-31T16:21:16.183Z,22.61
2023-08-31T16:23:45.756Z,22.60
2023-08-31T16:26:15.298Z,22.57
2023-08-31T16:28:44.846Z,22.58
2023-08-31T16:31:17.329Z,22.58
2023-08-31T16:33:46.963Z,22.69
2023-08-31T16:36:16.546Z,22.74
2023-08-31T16:38:46.085Z,22.72
2023-08-31T16:41:15.634Z,22.76
2023-08-31T16:43:45.433Z,22.85
2023-08-31T16:46:18.623Z,22.67
2023-08-31T16:48:48.198Z,22.71
2023-08-31T16:51:18.328Z,22.80
2023-08-31T16:53:49.481Z,22.85
2023-08-31T16:56:19.732Z,22.62
2023-08-31T16:58:49.314Z,22.73
2023-08-31T17:01:21.452Z,22.68
2023-08-31T17:03:51.221Z,22.64
2023-08-31T17:06:20.899Z,22.44
2023-08-31T17:08:51.760Z,22.19
2023-08-31T17:11:21.079Z,22.06
2023-08-31T17:13:50.641Z,22.17
2023-08-31T17:16:22.881Z,22.19
2023-08-31T17:18:52.649Z,22.23
2023-08-31T17:21:22.201Z,22.22
2023-08-31T17:23:51.754Z,22.17
2023-08-31T17:26:24.880Z,22.00
2023-08-31T17:28:54.533Z,21.73
2023-08-31T17:31:27.310Z,21.72
2023-08-31T17:33:58.796Z,21.71
2023-08-31T17:36:28.559Z,21.64
2023-08-31T17:38:58.093Z,21.54
2023-08-31T17:41:27.983Z,21.49
2023-08-31T17:43:57.548Z,21.48
2023-08-31T17:46:31.629Z,21.61
2023-08-31T17:49:01.217Z,21.62
2023-08-31T17:51:30.871Z,21.45
2023-08-31T17:54:01.009Z,21.33
2023-08-31T17:56:32.158Z,21.35
2023-08-31T17:59:01.765Z,21.27
2023-08-31T18:01:34.810Z,21.17
2023-08-31T18:04:04.735Z,21.18
2023-08-31T18:06:34.876Z,21.15
2023-08-31T18:09:05.879Z,21.13
2023-08-31T18:11:35.197Z,20.67
2023-08-31T18:14:04.839Z,20.65
2023-08-31T18:16:37.033Z,20.72
2023-08-31T18:19:07.278Z,20.70
2023-08-31T18:21:36.838Z,20.51
2023-08-31T18:24:08.892Z,20.40
2023-08-31T18:26:38.455Z,20.32
2023-08-31T18:29:08.109Z,20.29
2023-08-31T18:31:42.427Z,20.16
2023-08-31T18:34:12.231Z,20.06
2023-08-31T18:36:42.205Z,20.05
2023-08-31T18:39:11.788Z,20.05
2023-08-31T18:41:41.732Z,20.00
2023-08-31T18:44:11.306Z,20.05
2023-08-31T18:46:43.558Z,19.98
2023-08-31T18:49:13.256Z,19.80
2023-08-31T18:51:45.023Z,19.61
2023-08-31T18:54:14.683Z,19.68
2023-08-31T18:56:44.292Z,19.21
2023-08-31T18:59:13.934Z,18.78
2023-08-31T19:01:46.847Z,18.66
2023-08-31T19:04:17.772Z,18.70
2023-08-31T19:06:47.322Z,18.64
2023-08-31T19:09:16.856Z,18.32
2023-08-31T19:11:46.439Z,18.40
2023-08-31T19:14:16.010Z,18.31
2023-08-31T19:16:48.211Z,18.47
2023-08-31T19:19:18.119Z,18.48
2023-08-31T19:21:47.677Z,18.29
2023-08-31T19:24:17.234Z,18.18
2023-08-31T19:26:46.787Z,18.34
2023-08-31T19:29:16.377Z,18.40
2023-08-31T19:31:48.622Z,18.46
2023-08-31T19:34:18.354Z,18.80
2023-08-31T19:36:48.066Z,18.81
2023-08-31T19:39:17.671Z,18.43
2023-08-31T19:41:47.234Z,18.48
2023-08-31T19:44:16.795Z,18.80
2023-08-31T19:46:55.489Z,18.83
2023-08-31T19:49:25.753Z,19.08
2023-08-31T19:51:55.319Z,19.16
2023-08-31T19:54:24.943Z,19.16
2023-08-31T19:56:54.555Z,19.19
2023-08-31T19:59:24.106Z,19.24
2023-08-31T20:01:57.150Z,19.28
2023-08-31T20:04:26.795Z,19.32
2023-08-31T20:06:56.424Z,19.35
2023-08-31T20:09:27.879Z,19.40
2023-08-31T20:11:57.586Z,19.42
2023-08-31T20:14:27.202Z,19.42
2023-08-31T20:17:00.031Z,19.32
2023-08-31T20:19:29.638Z,19.11
2023-08-31T20:21:59.405Z,19.10
2023-08-31T20:24:28.953Z,18.79
2023-08-31T20:26:58.752Z,18.37
2023-08-31T20:29:28.372Z,17.92
2023-08-31T20:32:00.761Z,17.68
2023-08-31T20:34:30.403Z,17.87
2023-08-31T20:37:03.758Z,18.06
2023-08-31T20:39:33.788Z,18.05
2023-08-31T20:42:03.542Z,18.25
2023-08-31T20:44:33.583Z,18.26
2023-08-31T20:47:06.049Z,18.26
2023-08-31T20:49:35.683Z,18.38
2023-08-31T20:52:05.263Z,18.26
2023-08-31T20:54:34.911Z,18.26
2023-08-31T20:57:05.249Z,18.19
2023-08-31T20:59:35.370Z,18.27
2023-08-31T21:02:07.696Z,18.34
2023-08-31T21:04:37.465Z,18.00
2023-08-31T21:07:07.453Z,17.76
2023-08-31T21:09:37.066Z,17.61
2023-08-31T21:12:07.048Z,17.75
2023-08-31T21:14:36.751Z,17.68
2023-08-31T21:17:08.975Z,17.74
2023-08-31T21:19:38.572Z,17.77
2023-08-31T21:22:08.138Z,17.51
2023-08-31T21:24:37.989Z,17.56
2023-08-31T21:27:07.978Z,17.61
2023-08-31T21:29:37.644Z,17.72
2023-08-31T21:32:10.032Z,17.76
2023-08-31T21:34:37.047Z,17.81
2023-08-31T21:37:06.939Z,17.50
2023-08-31T21:39:36.593Z,17.41
2023-08-31T21:42:06.496Z,17.52
2023-08-31T21:44:36.107Z,17.57
2023-08-31T21:47:05.666Z,17.33
2023-08-31T21:49:38.074Z,17.09
2023-08-31T21:52:11.231Z,17.19
2023-08-31T21:54:44.160Z,17.36
2023-08-31T21:57:13.913Z,17.40
2023-08-31T21:59:43.753Z,17.52
2023-08-31T22:02:14.965Z,17.43
2023-08-31T22:04:47.396Z,16.90
2023-08-31T22:07:17.201Z,16.71
2023-08-31T22:09:48.471Z,16.81
2023-08-31T22:12:19.373Z,16.88
2023-08-31T22:14:49.393Z,17.11
2023-08-31T22:17:19.101Z,16.76
2023-08-31T22:19:51.558Z,16.86
2023-08-31T22:22:21.614Z,17.10
2023-08-31T22:24:51.376Z,17.34
2023-08-31T22:27:21.130Z,17.04
2023-08-31T22:29:50.841Z,16.74
2023-08-31T22:32:20.636Z,16.66
2023-08-31T22:34:52.803Z,17.00
2023-08-31T22:37:22.365Z,16.77
2023-08-31T22:39:51.937Z,16.56
2023-08-31T22:42:21.493Z,16.55
2023-08-31T22:44:51.057Z,16.40
2023-08-31T22:47:20.627Z,16.30
2023-08-31T22:49:55.463Z,16.33
2023-08-31T22:52:25.056Z,15.87
2023-08-31T22:54:56.346Z,15.71
2023-08-31T22:57:26.132Z,15.67
2023-08-31T22:59:55.845Z,15.65
2023-08-31T23:02:28.757Z,15.91
2023-08-31T23:05:00.991Z,16.14
2023-08-31T23:07:30.742Z,16.41
2023-08-31T23:10:00.725Z,16.67
2023-08-31T23:12:30.416Z,16.83
2023-08-31T23:15:00.003Z,16.70
2023-08-31T23:17:29.607Z,16.67
2023-08-31T23:20:01.816Z,16.46
2023-08-31T23:22:31.414Z,16.48
2023-08-31T23:25:01.041Z,16.58
2023-08-31T23:27:32.274Z,16.73
2023-08-31T23:30:01.996Z,16.45
2023-08-31T23:32:31.598Z,16.39
2023-08-31T23:35:03.808Z,16.53
2023-08-31T23:37:33.390Z,16.35
2023-08-31T23:40:05.729Z,16.39
2023-08-31T23:42:35.645Z,16.43
2023-08-31T23:45:05.283Z,16.41
2023-08-31T23:47:34.941Z,16.58
2023-08-31T23:50:07.937Z,16.69
2023-08-31T23:52:37.567Z,17.00
2023-08-31T23:55:07.624Z,17.22
2023-08-31T23:57:37.322Z,17.35
